createdAt,value
2018-04-01T00:02:02.246Z,15.95
2018-04-01T00:04:29.806Z,16.85
2018-04-01T00:06:57.370Z,15.63
2018-04-01T00:09:24.705Z,14.13
2018-04-01T00:11:52.263Z,12.90
2018-04-01T00:14:19.823Z,15.18
2018-04-01T00:16:47.408Z,12.27
2018-04-01T00:19:14.979Z,16.58
2018-04-01T00:21:42.549Z,14.32
2018-04-01T00:24:10.106Z,14.55
2018-04-01T00:26:37.677Z,17.05
2018-04-01T00:29:05.229Z,16.00
2018-04-01T00:31:32.805Z,14.45
2018-04-01T00:34:00.372Z,15.88
2018-04-01T00:36:27.937Z,14.23
2018-04-01T00:38:55.487Z,19.45
2018-04-01T00:41:23.061Z,19.60
2018-04-01T00:43:50.620Z,27.15
2018-04-01T00:46:18.949Z,18.73
2018-04-01T00:48:46.505Z,20.95
2018-04-01T00:51:14.071Z,23.73
2018-04-01T00:53:41.640Z,21.85
2018-04-01T00:56:09.202Z,26.73
2018-04-01T00:58:36.748Z,25.80
2018-04-01T01:01:04.310Z,21.80
2018-04-01T01:03:32.462Z,26.48
2018-04-01T01:06:00.048Z,23.38
2018-04-01T01:08:27.597Z,21.25
2018-04-01T01:10:55.154Z,24.58
2018-04-01T01:13:22.710Z,24.33
2018-04-01T01:15:50.258Z,27.65
2018-04-01T01:18:17.846Z,22.60
2018-04-01T01:20:45.578Z,24.08
2018-04-01T01:23:13.898Z,29.35
2018-04-01T01:25:41.476Z,27.35
2018-04-01T01:28:09.044Z,26.73
2018-04-01T01:30:36.605Z,29.75
2018-04-01T01:33:04.166Z,25.83
2018-04-01T01:35:31.727Z,29.05
2018-04-01T01:37:59.301Z,35.75
2018-04-01T01:40:26.860Z,30.17
2018-04-01T01:42:54.422Z,35.83
2018-04-01T01:45:21.999Z,30.98
2018-04-01T01:47:50.322Z,41.00
2018-04-01T01:50:17.878Z,35.13
2018-04-01T01:52:45.450Z,31.37
2018-04-01T01:55:12.774Z,31.08
2018-04-01T01:57:40.110Z,36.25
2018-04-01T02:00:08.467Z,33.70
2018-04-01T02:02:36.018Z,39.05
2018-04-01T02:05:03.578Z,37.80
2018-04-01T02:07:31.816Z,33.17
2018-04-01T02:09:59.170Z,36.75
2018-04-01T02:12:27.670Z,31.12
2018-04-01T02:14:55.231Z,36.72
2018-04-01T02:17:22.560Z,31.40
2018-04-01T02:19:50.226Z,27.58
2018-04-01T02:22:17.803Z,33.75
2018-04-01T02:24:45.359Z,32.13
2018-04-01T02:27:12.927Z,33.42
2018-04-01T02:29:40.258Z,42.90
2018-04-01T02:32:07.574Z,43.42
2018-04-01T02:34:35.131Z,37.58
2018-04-01T02:37:02.703Z,43.58
2018-04-01T02:39:30.588Z,40.88
2018-04-01T02:41:58.931Z,32.95
2018-04-01T02:44:26.511Z,46.95
2018-04-01T02:46:54.087Z,38.65
2018-04-01T02:49:21.675Z,48.42
2018-04-01T02:51:49.228Z,49.72
2018-04-01T02:54:16.794Z,46.55
2018-04-01T02:56:44.339Z,52.92
2018-04-01T02:59:11.909Z,51.42
2018-04-01T03:01:39.496Z,41.63
2018-04-01T03:04:07.063Z,51.08
2018-04-01T03:06:34.640Z,47.88
2018-04-01T03:09:02.205Z,52.33
2018-04-01T03:11:29.771Z,43.40
2018-04-01T03:13:57.323Z,53.87
2018-04-01T03:16:24.958Z,51.58
2018-04-01T03:18:52.604Z,46.50
2018-04-01T03:21:20.248Z,49.55
2018-04-01T03:23:47.907Z,48.35
2018-04-01T03:26:15.561Z,47.05
2018-04-01T03:28:43.206Z,43.75
2018-04-01T03:31:11.629Z,51.53
2018-04-01T03:33:39.290Z,47.72
2018-04-01T03:36:06.935Z,48.10
2018-04-01T03:38:35.350Z,53.15
2018-04-01T03:41:03.008Z,46.75
2018-04-01T03:43:30.666Z,44.42
2018-04-01T03:45:58.319Z,52.88
2018-04-01T03:48:26.728Z,41.65
2018-04-01T03:50:54.383Z,43.00
2018-04-01T03:53:22.047Z,44.80
2018-04-01T03:55:49.683Z,40.28
2018-04-01T03:58:17.328Z,42.88
2018-04-01T04:00:45.735Z,42.83
2018-04-01T04:03:13.143Z,42.95
2018-04-01T04:05:40.560Z,43.95
2018-04-01T04:08:07.975Z,41.47
2018-04-01T04:10:36.154Z,52.55
2018-04-01T04:13:04.565Z,42.67
2018-04-01T04:15:32.207Z,47.45
2018-04-01T04:17:59.854Z,43.85
2018-04-01T04:20:28.255Z,40.72
2018-04-01T04:22:55.911Z,45.17
2018-04-01T04:25:23.561Z,41.28
2018-04-01T04:27:51.964Z,41.72
2018-04-01T04:30:19.374Z,43.85
2018-04-01T04:32:47.011Z,36.38
2018-04-01T04:35:14.656Z,43.28
2018-04-01T04:37:42.302Z,50.80
2018-04-01T04:40:09.953Z,44.03
2018-04-01T04:42:38.374Z,52.17
2018-04-01T04:45:06.018Z,42.03
2018-04-01T04:47:33.662Z,53.85
2018-04-01T04:50:01.344Z,46.47
2018-04-01T04:52:28.998Z,48.65
2018-04-01T04:54:56.662Z,47.20
2018-04-01T04:57:24.084Z,43.83
2018-04-01T04:59:51.736Z,42.78
2018-04-01T05:02:19.377Z,41.37
2018-04-01T05:04:47.034Z,38.30
2018-04-01T05:07:14.669Z,35.30
2018-04-01T05:09:42.327Z,38.97
2018-04-01T05:12:09.975Z,44.33
2018-04-01T05:14:39.091Z,41.45
2018-04-01T05:17:06.778Z,39.67
2018-04-01T05:19:35.122Z,35.38
2018-04-01T05:22:03.306Z,45.63
2018-04-01T05:24:31.003Z,45.17
2018-04-01T05:26:58.658Z,41.03
2018-04-01T05:29:26.305Z,38.72
2018-04-01T05:31:53.959Z,44.92
2018-04-01T05:34:21.605Z,42.50
2018-04-01T05:36:49.262Z,37.35
2018-04-01T05:39:17.672Z,40.63
2018-04-01T05:41:45.311Z,35.38
2018-04-01T05:44:13.533Z,44.47
2018-04-01T05:46:41.358Z,36.35
2018-04-01T05:49:09.003Z,42.45
2018-04-01T05:51:36.685Z,39.60
2018-04-01T05:54:04.503Z,37.58
2018-04-01T05:56:32.147Z,46.95
2018-04-01T05:58:59.804Z,28.87
2018-04-01T06:01:27.229Z,35.35
2018-04-01T06:03:55.652Z,35.17
2018-04-01T06:06:23.384Z,28.42
2018-04-01T06:08:51.045Z,29.12
2018-04-01T06:11:18.463Z,34.38
2018-04-01T06:13:46.123Z,36.30
2018-04-01T06:16:13.787Z,35.03
2018-04-01T06:18:41.442Z,32.42
2018-04-01T06:21:09.096Z,31.15
2018-04-01T06:23:36.750Z,28.10
2018-04-01T06:26:04.408Z,29.83
2018-04-01T06:28:32.068Z,32.35
2018-04-01T06:30:59.731Z,35.50
2018-04-01T06:33:27.378Z,32.33
2018-04-01T06:35:55.035Z,36.45
2018-04-01T06:38:22.689Z,40.17
2018-04-01T06:40:51.118Z,40.78
2018-04-01T06:43:18.780Z,36.08
2018-04-01T06:45:46.448Z,31.55
2018-04-01T06:48:14.118Z,37.28
2018-04-01T06:50:41.819Z,33.85
2018-04-01T06:53:09.635Z,36.08
2018-04-01T06:55:37.291Z,27.90
2018-04-01T06:58:04.952Z,32.78
2018-04-01T07:00:32.613Z,26.52
2018-04-01T07:03:00.279Z,31.77
2018-04-01T07:05:27.940Z,32.38
2018-04-01T07:07:55.588Z,28.20
2018-04-01T07:10:23.233Z,27.77
2018-04-01T07:12:50.888Z,27.62
2018-04-01T07:15:20.115Z,30.30
2018-04-01T07:17:47.767Z,34.60
2018-04-01T07:20:15.429Z,33.85
2018-04-01T07:22:43.112Z,33.53
2018-04-01T07:25:10.771Z,32.38
2018-04-01T07:27:38.423Z,35.70
2018-04-01T07:30:06.062Z,37.13
2018-04-01T07:32:34.477Z,40.05
2018-04-01T07:35:02.148Z,30.48
2018-04-01T07:37:29.804Z,34.75
2018-04-01T07:39:57.470Z,33.85
2018-04-01T07:42:25.137Z,33.78
2018-04-01T07:44:52.981Z,38.67
2018-04-01T07:47:20.640Z,38.03
2018-04-01T07:49:48.311Z,31.58
2018-04-01T07:52:15.968Z,29.67
2018-04-01T07:54:43.642Z,35.03
2018-04-01T07:57:11.299Z,32.53
2018-04-01T07:59:38.960Z,32.45
2018-04-01T08:02:06.630Z,36.25
2018-04-01T08:04:34.288Z,31.12
2018-04-01T08:07:01.943Z,30.52
2018-04-01T08:09:29.597Z,27.33
2018-04-01T08:11:58.018Z,32.33
2018-04-01T08:14:25.672Z,28.48
2018-04-01T08:16:54.197Z,29.52
2018-04-01T08:19:21.869Z,32.58
2018-04-01T08:21:50.295Z,22.70
2018-04-01T08:24:17.954Z,29.23
2018-04-01T08:26:46.721Z,29.23
2018-04-01T08:29:14.387Z,30.73
2018-04-01T08:31:42.045Z,34.22
2018-04-01T08:34:10.473Z,32.42
2018-04-01T08:36:38.116Z,26.40
2018-04-01T08:39:05.776Z,27.02
2018-04-01T08:41:33.428Z,30.37
2018-04-01T08:44:01.092Z,27.35
2018-04-01T08:46:28.747Z,31.27
2018-04-01T08:48:56.399Z,31.20
2018-04-01T08:51:24.812Z,21.52
2018-04-01T08:53:53.661Z,27.90
2018-04-01T08:56:22.075Z,22.30
2018-04-01T08:58:49.732Z,27.80
2018-04-01T09:01:18.264Z,28.12
2018-04-01T09:03:45.937Z,25.27
2018-04-01T09:06:14.667Z,25.02
2018-04-01T09:08:42.084Z,25.33
2018-04-01T09:11:09.507Z,22.42
2018-04-01T09:13:37.171Z,23.20
2018-04-01T09:16:04.790Z,26.20
2018-04-01T09:18:33.203Z,23.23
2018-04-01T09:21:00.874Z,27.48
2018-04-01T09:23:28.540Z,24.05
2018-04-01T09:25:56.194Z,27.15
2018-04-01T09:28:23.853Z,21.40
2018-04-01T09:30:51.502Z,20.17
2018-04-01T09:33:19.224Z,25.05
2018-04-01T09:35:46.874Z,25.50
2018-04-01T09:38:14.991Z,25.27
2018-04-01T09:40:42.669Z,29.60
2018-04-01T09:43:10.346Z,20.17
2018-04-01T09:45:37.995Z,24.90
2018-04-01T09:48:05.644Z,21.48
2018-04-01T09:50:34.077Z,21.85
2018-04-01T09:53:01.743Z,22.00
2018-04-01T09:55:29.412Z,25.25
2018-04-01T09:57:57.060Z,22.65
2018-04-01T10:00:26.148Z,18.10
2018-04-01T10:02:54.965Z,20.23
2018-04-01T10:05:23.441Z,20.70
2018-04-01T10:07:59.658Z,17.20
2018-04-01T10:10:28.470Z,15.68
2018-04-01T10:12:57.283Z,18.95
2018-04-01T10:15:26.079Z,19.30
2018-04-01T10:17:55.454Z,17.30
2018-04-01T10:20:24.261Z,19.15
2018-04-01T10:22:53.918Z,18.37
2018-04-01T10:25:22.720Z,19.00
2018-04-01T10:27:52.107Z,19.95
2018-04-01T10:30:20.924Z,17.23
2018-04-01T10:32:49.715Z,19.50
2018-04-01T10:35:18.517Z,19.58
2018-04-01T10:37:48.149Z,21.17
2018-04-01T10:40:16.939Z,19.83
2018-04-01T10:42:45.863Z,17.08
2018-04-01T10:45:15.651Z,22.20
2018-04-01T10:47:46.010Z,17.77
2018-04-01T10:50:14.820Z,21.77
2018-04-01T10:52:43.860Z,21.12
2018-04-01T10:55:11.525Z,17.73
2018-04-01T10:57:39.208Z,19.25
2018-04-01T11:00:07.633Z,22.85
2018-04-01T11:02:35.293Z,16.65
2018-04-01T11:05:02.940Z,19.83
2018-04-01T11:07:31.804Z,19.45
2018-04-01T11:10:00.775Z,18.73
2018-04-01T11:12:28.427Z,18.98
2018-04-01T11:14:56.078Z,24.33
2018-04-01T11:17:23.744Z,24.37
2018-04-01T11:19:51.389Z,21.12
2018-04-01T11:22:18.843Z,22.77
2018-04-01T11:24:46.256Z,21.65
2018-04-01T11:27:13.909Z,24.25
2018-04-01T11:29:41.568Z,22.60
2018-04-01T11:32:09.225Z,22.10
2018-04-01T11:34:36.877Z,25.55
2018-04-01T11:37:05.052Z,23.42
2018-04-01T11:39:32.797Z,22.50
2018-04-01T11:42:00.449Z,22.20
2018-04-01T11:44:28.101Z,24.55
2018-04-01T11:46:55.860Z,22.08
2018-04-01T11:49:23.522Z,20.73
2018-04-01T11:51:51.167Z,21.62
2018-04-01T11:54:19.597Z,24.77
2018-04-01T11:56:47.300Z,20.42
2018-04-01T11:59:15.113Z,29.15
2018-04-01T12:01:42.780Z,22.00
2018-04-01T12:04:10.429Z,20.73
2018-04-01T12:06:38.084Z,22.20
2018-04-01T12:09:05.741Z,21.00
2018-04-01T12:11:33.934Z,21.50
2018-04-01T12:14:01.606Z,23.33
2018-04-01T12:16:29.262Z,19.42
2018-04-01T12:18:56.916Z,19.52
2018-04-01T12:21:24.588Z,23.92
2018-04-01T12:23:52.271Z,18.00
2018-04-01T12:26:19.935Z,16.33
2018-04-01T12:28:47.634Z,17.42
2018-04-01T12:31:15.294Z,11.95
2018-04-01T12:33:42.954Z,11.75
2018-04-01T12:36:10.400Z,12.13
2018-04-01T12:38:38.054Z,11.10
2018-04-01T12:41:06.168Z,12.23
2018-04-01T12:43:34.583Z,12.23
2018-04-01T12:46:02.233Z,10.88
2018-04-01T12:48:29.887Z,12.37
2018-04-01T12:50:58.848Z,10.32
2018-04-01T12:53:26.703Z,11.52
2018-04-01T12:55:54.466Z,12.27
2018-04-01T12:58:22.903Z,11.43
2018-04-01T13:00:50.565Z,11.12
2018-04-01T13:03:19.000Z,8.73
2018-04-01T13:05:46.659Z,12.75
2018-04-01T13:08:14.307Z,10.85
2018-04-01T13:10:42.688Z,9.88
2018-04-01T13:13:10.373Z,11.98
2018-04-01T13:15:38.098Z,12.25
2018-04-01T13:18:05.783Z,10.68
2018-04-01T13:20:33.443Z,11.23
2018-04-01T13:23:01.137Z,12.05
2018-04-01T13:25:32.076Z,12.45
2018-04-01T13:27:59.891Z,10.18
2018-04-01T13:30:28.143Z,13.88
2018-04-01T13:32:55.809Z,10.63
2018-04-01T13:35:23.472Z,12.98
2018-04-01T13:37:51.148Z,11.05
2018-04-01T13:40:18.902Z,13.35
2018-04-01T13:42:46.556Z,13.57
2018-04-01T13:45:14.981Z,12.85
2018-04-01T13:47:42.831Z,11.20
2018-04-01T13:50:10.690Z,10.82
2018-04-01T13:52:38.365Z,12.27
2018-04-01T13:55:05.785Z,11.60
2018-04-01T13:57:33.979Z,11.88
2018-04-01T14:00:01.637Z,14.93
2018-04-01T14:02:29.288Z,12.73
2018-04-01T14:04:57.739Z,13.30
2018-04-01T14:07:25.422Z,13.82
2018-04-01T14:09:53.079Z,12.13
2018-04-01T14:12:20.740Z,16.62
2018-04-01T14:14:48.423Z,16.55
2018-04-01T14:17:16.836Z,14.27
2018-04-01T14:19:45.342Z,14.80
2018-04-01T14:22:13.000Z,12.88
2018-04-01T14:24:40.678Z,11.57
2018-04-01T14:27:09.143Z,14.25
2018-04-01T14:29:36.808Z,15.02
2018-04-01T14:32:05.302Z,15.25
2018-04-01T14:34:33.015Z,16.27
2018-04-01T14:37:01.543Z,12.90
2018-04-01T14:39:40.737Z,19.58
2018-04-01T14:42:15.758Z,15.63
2018-04-01T15:07:41.352Z,14.90
2018-04-01T15:10:09.032Z,18.95
2018-04-01T15:12:37.397Z,17.60
2018-04-01T15:15:08.370Z,13.90
2018-04-01T15:17:36.655Z,15.98
2018-04-01T15:20:05.594Z,14.55
2018-04-01T15:22:33.323Z,13.15
2018-04-01T15:25:01.026Z,12.85
2018-04-01T15:27:29.282Z,13.02
2018-04-01T15:29:57.757Z,14.75
2018-04-01T15:32:26.896Z,13.45
2018-04-01T15:34:54.821Z,13.02
2018-04-01T15:37:23.306Z,16.70
2018-04-01T15:39:51.828Z,13.93
2018-04-01T15:42:20.163Z,17.30
2018-04-01T15:44:48.753Z,14.93
2018-04-01T15:47:17.274Z,12.25
2018-04-01T15:49:44.984Z,11.63
2018-04-01T15:52:12.688Z,10.27
2018-04-01T15:54:43.368Z,8.77
2018-04-01T15:57:12.427Z,9.02
2018-04-01T15:59:40.086Z,7.97
2018-04-01T16:02:08.061Z,13.82
2018-04-01T16:04:36.463Z,9.20
2018-04-01T16:07:04.107Z,9.90
2018-04-01T16:09:31.761Z,9.20
2018-04-01T16:12:00.193Z,9.35
2018-04-01T16:14:28.591Z,8.10
2018-04-01T16:16:56.222Z,8.50
2018-04-01T16:19:23.877Z,11.07
2018-04-01T16:21:51.610Z,10.25
2018-04-01T16:24:19.269Z,11.27
2018-04-01T16:26:47.706Z,12.45
2018-04-01T16:29:15.386Z,10.35
2018-04-01T16:31:43.037Z,11.90
2018-04-01T16:34:10.715Z,10.48
2018-04-01T16:36:38.410Z,11.05
2018-04-01T16:39:06.716Z,13.20
2018-04-01T16:41:34.367Z,11.15
2018-04-01T16:44:02.634Z,10.88
2018-04-01T16:46:30.313Z,11.93
2018-04-01T16:48:57.978Z,11.88
2018-04-01T16:51:25.649Z,12.57
2018-04-01T16:53:53.291Z,11.95
2018-04-01T16:56:20.932Z,9.93
2018-04-01T16:58:48.603Z,11.40
2018-04-01T17:01:16.259Z,10.73
2018-04-01T17:03:43.965Z,12.30
2018-04-01T17:06:11.856Z,11.70
2018-04-01T17:08:39.500Z,13.70
2018-04-01T17:11:07.155Z,11.15
2018-04-01T17:13:34.891Z,12.20
2018-04-01T17:16:02.551Z,9.52
2018-04-01T17:18:30.727Z,10.10
2018-04-01T17:20:58.402Z,12.50
2018-04-01T17:23:26.058Z,11.30
2018-04-01T17:25:53.698Z,11.93
2018-04-01T17:28:21.358Z,12.52
2018-04-01T17:30:49.784Z,13.95
2018-04-01T17:33:17.448Z,10.98
2018-04-01T17:35:45.105Z,14.73
2018-04-01T17:38:13.488Z,14.98
2018-04-01T17:40:41.135Z,14.18
2018-04-01T17:43:08.787Z,13.88
2018-04-01T17:45:36.438Z,13.43
2018-04-01T17:48:05.078Z,13.85
2018-04-01T17:50:32.735Z,15.60
2018-04-01T17:53:00.399Z,13.90
2018-04-01T17:55:28.062Z,15.90
2018-04-01T17:57:56.555Z,14.82
2018-04-01T18:00:24.211Z,16.10
2018-04-01T18:02:51.865Z,15.02
2018-04-01T18:05:19.600Z,15.90
2018-04-01T18:07:47.257Z,15.10
2018-04-01T18:10:14.907Z,19.15
2018-04-01T18:12:43.086Z,17.90
2018-04-01T18:15:11.271Z,19.52
2018-04-01T18:17:38.921Z,20.65
2018-04-01T18:20:07.348Z,22.58
2018-04-01T18:22:35.008Z,22.13
2018-04-01T18:25:02.684Z,19.80
2018-04-01T18:27:31.220Z,19.12
2018-04-01T18:29:59.642Z,20.12
2018-04-01T18:32:27.075Z,19.50
2018-04-01T18:34:55.082Z,21.77
2018-04-01T18:37:22.737Z,21.42
2018-04-01T18:39:50.386Z,19.12
2018-04-01T18:42:18.046Z,15.70
2018-04-01T18:44:46.333Z,20.62
2018-04-01T18:47:13.983Z,21.10
2018-04-01T18:49:41.656Z,22.75
2018-04-01T18:52:09.324Z,24.20
2018-04-01T18:54:36.980Z,21.12
2018-04-01T18:57:04.641Z,20.95
2018-04-01T18:59:32.349Z,22.75
2018-04-01T19:02:00.007Z,25.58
2018-04-01T19:04:27.661Z,24.48
2018-04-01T19:06:57.444Z,23.80
2018-04-01T19:09:25.085Z,19.95
2018-04-01T19:11:52.736Z,19.87
2018-04-01T19:14:21.152Z,24.12
2018-04-01T19:17:04.786Z,22.02
2018-04-01T19:19:33.597Z,20.80
2018-04-01T19:22:02.188Z,21.80
2018-04-01T19:24:30.674Z,19.45
2018-04-01T19:27:00.695Z,23.87
2018-04-01T19:29:30.109Z,25.75
2018-04-01T19:31:58.924Z,21.85
2018-04-01T19:34:27.798Z,22.33
2018-04-01T19:36:57.393Z,20.55
2018-04-01T19:39:27.913Z,24.75
2018-04-01T19:41:56.716Z,25.83
2018-04-01T19:44:25.538Z,23.50
2018-04-01T19:46:54.355Z,21.85
2018-04-01T19:49:23.024Z,23.25
2018-04-01T19:51:51.598Z,22.25
2018-04-01T19:54:20.398Z,26.95
2018-04-01T19:56:49.199Z,26.95
2018-04-01T19:59:18.004Z,24.17
2018-04-01T20:01:46.871Z,23.73
2018-04-01T20:04:15.755Z,23.65
2018-04-01T20:06:44.608Z,22.20
2018-04-01T20:09:13.338Z,26.05
2018-04-01T20:11:42.148Z,23.60
2018-04-01T20:14:10.953Z,23.23
2018-04-01T20:16:39.784Z,23.85
2018-04-01T20:19:09.357Z,26.67
2018-04-01T20:21:38.156Z,25.80
2018-04-01T20:24:06.997Z,25.58
2018-04-01T20:26:35.805Z,23.92
2018-04-01T20:29:04.623Z,23.35
2018-04-01T20:31:33.443Z,26.08
2018-04-01T20:34:03.019Z,24.87
2018-04-01T20:36:33.724Z,22.35
2018-04-01T20:39:02.562Z,23.62
2018-04-01T20:41:32.197Z,24.92
2018-04-01T20:44:02.405Z,29.70
2018-04-01T20:46:32.001Z,26.90
2018-04-01T20:49:00.818Z,27.10
2018-04-01T20:51:29.635Z,28.35
2018-04-01T20:53:58.669Z,24.00
2018-04-01T20:56:27.472Z,27.95
2018-04-01T20:58:56.275Z,24.08
2018-04-01T21:01:25.872Z,24.85
2018-04-01T21:03:55.442Z,27.45
2018-04-01T21:06:25.979Z,22.92
2018-04-01T21:08:54.788Z,28.23
2018-04-01T21:11:24.392Z,23.60
2018-04-01T21:13:53.990Z,23.25
2018-04-01T21:16:22.798Z,21.40
2018-04-01T21:18:51.636Z,23.62
2018-04-01T21:21:20.455Z,27.95
2018-04-01T21:23:49.959Z,27.45
2018-04-01T21:26:18.776Z,23.55
2018-04-01T21:28:47.589Z,25.62
2018-04-01T21:31:16.419Z,23.87
2018-04-01T21:33:45.219Z,21.35
2018-04-01T21:36:14.019Z,22.37
2018-04-01T21:38:42.826Z,21.12
2018-04-01T21:41:12.328Z,18.60
2018-04-01T21:43:41.210Z,21.80
2018-04-01T21:46:10.018Z,22.62
2018-04-01T21:48:38.820Z,25.40
2018-04-01T21:51:08.382Z,20.92
2018-04-01T21:53:37.187Z,22.37
2018-04-01T21:56:06.318Z,21.25
2018-04-01T21:58:35.889Z,19.12
2018-04-01T22:01:04.120Z,20.80
2018-04-01T22:03:32.906Z,19.70
2018-04-01T22:06:01.699Z,22.83
2018-04-01T22:08:30.488Z,19.92
2018-04-01T22:10:59.286Z,21.55
2018-04-01T22:13:28.083Z,26.90
2018-04-01T22:15:56.875Z,21.60
2018-04-01T22:18:25.671Z,22.60
2018-04-01T22:20:55.163Z,20.70
2018-04-01T22:23:24.687Z,24.25
2018-04-01T22:25:54.039Z,21.77
2018-04-01T22:28:23.598Z,18.65
2018-04-01T22:30:52.394Z,19.33
2018-04-01T22:33:21.200Z,21.10
2018-04-01T22:35:49.999Z,21.58
2018-04-01T22:38:18.803Z,20.75
2018-04-01T22:40:48.671Z,18.58
2018-04-01T22:43:17.472Z,20.27
2018-04-01T22:45:47.057Z,20.77
2018-04-01T22:48:15.851Z,30.88
2018-04-01T22:50:44.655Z,23.30
2018-04-01T22:53:13.260Z,26.55
2018-04-01T22:55:42.076Z,23.98
2018-04-01T22:58:11.633Z,20.37
2018-04-01T23:00:40.435Z,25.40
2018-04-01T23:03:09.263Z,25.85
2018-04-01T23:05:38.818Z,23.58
2018-04-01T23:08:07.626Z,26.37
2018-04-01T23:10:36.434Z,28.20
2018-04-01T23:13:05.992Z,23.27
2018-04-01T23:15:34.793Z,22.73
2018-04-01T23:18:03.604Z,25.85
2018-04-01T23:20:32.070Z,25.70
2018-04-01T23:23:00.643Z,28.80
2018-04-01T23:25:29.431Z,25.65
2018-04-01T23:27:58.227Z,25.17
2018-04-01T23:30:27.028Z,24.85
2018-04-01T23:32:55.829Z,28.33
2018-04-01T23:35:24.615Z,25.60
2018-04-01T23:37:53.419Z,25.20
2018-04-01T23:40:22.998Z,33.97
2018-04-01T23:42:51.813Z,26.00
2018-04-01T23:45:20.607Z,25.85
2018-04-01T23:47:49.174Z,27.13
2018-04-01T23:50:17.738Z,28.90
2018-04-01T23:52:46.537Z,29.75
2018-04-01T23:55:15.344Z,32.20
2018-04-01T23:57:44.150Z,28.65
